Forest City, NC (28043)

6:32 PM EDT on August 30, 2015 (GMT -0400)
Forest City-Dunbar Elementary | | Change Station
CLOSE
Current Station
Personal Weather Station
Location: Forest City, NC
Elevation: 966 ft
Nearby Weather Stations

Elev 966 ft 35.35 °N, 81.87 °W | Updated 4 minutes ago

Partly Cloudy
Partly Cloudy
77.7 °F
Feels Like 79 °F
N
0.0
Wind Variable Wind from SSW
Gusts 4.0 mph

Today
High -- | Low -- °F
--% Chance of Precip.
Yesterday
High -- | Low -- °F
Precip. -- in
6:58 AM 7:57 PM
Full, 98% visible
Pressure 30.15 in
Visibility 10.0 miles
Clouds Overcast 5000 ft
Heat Index 79 °F
Dew Point 63 °F
Humidity 60%
Rainfall 0.00 in
Snow Depth Not available.
UV 0 out of 12
Pollen 4.30 out of 12
Air Quality Not available.
Flu Activity Not available.
METAR KFQD 302215Z AUTO 14007KT 10SM -RA OVC050 26/15 A3015 RMK AO2 T02570153
Pressure 30.15 in
Visibility 10.0 miles
Clouds Overcast 5000 ft
Heat Index 79 °F
Dew Point 63 °F
Humidity 60%
Rainfall 0.00 in
Snow Depth Not available.
UV 0 out of 12
Pollen 4.30 out of 12
Air Quality Not available.
Flu Activity Not available.
METAR KFQD 302215Z AUTO 14007KT 10SM -RA OVC050 26/15 A3015 RMK AO2 T02570153

10-Day Weather Forecast

×

Almanac

Astronomy

Aug. 30, 2015 Rise Set
Actual Time
Civil Twilight
Nautical Twilight
Astronomical Twilight
Moon
Length of Visible Light
Length of Day
Tomorrow will be .
, % of the Moon is Illuminated

Today's Extremes

State Highs State Lows

Community

WunderPhotos

Upload Photos

1,851,074 photos uploaded!

WunderBlogs® & News

Nearby

Air Quality

  Air Quality AQ Index Pollutant
Not available.

Snow Depth

Station Depth Elevation

Earthquake Activity

City Distance Mag. Time & Date
Minimum magnitude displayed is 2.5.

Coastal Water Temperatures

Place Temperature

Stations

Nearby Weather Stations

Station Location Temp. Windchill Dew Point Humidity Wind Precip. Elev Updated Type